Midlothian, IL (60445)

23:02 CDT le 03 mai 2015 (GMT -0500)
151st & Central Ave. | | Change Station
CLOSE
Current Station
Stations météorologiques personnelles
Location: Oak Forest, IL
Altitude: 645 ft
Stations météo à proximité

Alt. 645 ft 41.62 °N, 87.76 °W | Updated 1 second ago

Partiellement nuageux
Partiellement nuageux
64.2 ° F
Paraît 64.2 ° F
N
4.0
Vent Variable Vent de SSO
Gusts 6.7 mph

Aujourd'hui
Haut(e) -- | Bas -- ° F
--% Risque de précip.
Hier
Haut(e) -- | Bas -- ° F
Precip. -- pouce
5:45 AM 7:50 PM
Pleine lune, 100% visible
Pression 29.92 pouce
Visibilité 10.0 Miles terrestres
Nuages Peu 8000 ft
Nuages épars 11000 ft
Point de rosée 53 ° F
Humidité 66%
Précipitations 0.03 pouce
Profondeur de la couche neigeuse Non disponible.
UV 0 sur 12
Pollen 10.80 sur 12
Qualité de l'air Non disponible.
Flu Activity Local Activity
METAR KMDW 040353Z 16008KT 10SM FEW080 SCT110 20/12 A2994 RMK AO2 SLP130 T02000122

More Conditions Fewer Conditions

Pression 29.92 pouce
Visibilité 10.0 Miles terrestres
Nuages Peu 8000 ft
Nuages épars 11000 ft
Point de rosée 53 ° F
Humidité 66%
Précipitations 0.03 pouce
Profondeur de la couche neigeuse Non disponible.
UV 0 sur 12
Pollen 10.80 sur 12
Qualité de l'air Non disponible.
Flu Activity Local Activity
METAR KMDW 040353Z 16008KT 10SM FEW080 SCT110 20/12 A2994 RMK AO2 SLP130 T02000122

More Conditions Fewer Conditions

Nepal has a long way to go to dig out and rebuild from a devastating earthquake. We have teamed up with several charities and organizations to make contributing to the relief effort as easy as possible.
How you can help: Portlight Strategies | Red Cross

10-Day Weather Forecast

Almanac

Astronomie

May. 03, 2015 Lever Coucher
Temps réel
Crépuscule civil
Crépuscule nautique
Crépuscule astronomique
Lune
Durée de lumière visible
Longueur du jour
Tomorrow will be .
, % of the Moon is Illuminated

Extrêmes aujourd'hui

State Highs State Lows

Community

WunderPhotos

Upload Photos

1,818,510 Photos téléchargées !

WunderBlogs® & News

Nearby

Qualité de l'air

  Qualité de l'air Indice de la qualité de l'air Polluant
Not available.

Épaisseur de neige

Station Depth Altitude

Activité sismique

Ville Distance Mag. Time & Date
Minimum magnitude displayed is 2.5.

Températures des eaux côtières

Lieu Température

Stations

Stations météo à proximité

Emplacement de la station Température Refroidissement éolien Point de rosée Humidité Vent Precip. Alt. Mise à jour Type